Terminal Aerodrome Forecast
Issued by NWS Pocatello, ID

Home | Current Version | Previous Version | Text Only | Print | Product List | Glossary On
Versions: 1 2 3 4 5 6 7 8 9 10 11 12 13 14 15 16 17 18 19 20 21 22 23 24 25 26
000
FTUS45 KPIH 281100
TAFPIH
TAF
KPIH 281120Z 2812/2912 22011KT P6SM -RA OVC006
      TEMPO 2812/2813 5SM -RA BR OVC004
     FM281600 24008KT P6SM SCT007 OVC015
     FM290300 VRB05KT 6SM BR OVC007=

USA.gov is the U.S. government's official web portal to all federal, state and local government web resources and services.